Time;durP1;ratioP1;P1;durP2;ratioP2;P2;SDS_P1;SDS_P2;PMS_P1;PMS_P2;Temp;Humidity;BMP_temperature;BMP_pressure;BME280_temperature;BME280_humidity;BME280_pressure;Samples;Min_cycle;Max_cycle;Signal;HPM_P1;HPM_P2
2022/07/19 00:00:29;;;;;;;0.93;0.40;;;;;;;21.76;44.09;99396.00;5012584;28;20432;-67
2022/07/19 00:03:17;;;;;;;1.88;0.40;;;;;;;21.73;44.86;99395.47;5013262;28;20371;-66
2022/07/19 00:06:01;;;;;;;0.85;0.55;;;;;;;21.70;39.91;99391.31;5013692;28;20061;-66
2022/07/19 00:08:46;;;;;;;0.70;0.40;;;;;;;21.67;42.84;99391.63;5024402;28;20073;-66
2022/07/19 00:11:31;;;;;;;1.95;0.40;;;;;;;21.62;43.32;99392.13;5019767;28;20037;-66
2022/07/19 00:14:17;;;;;;;3.63;0.57;;;;;;;21.61;40.59;99393.09;5016904;28;20100;-66
2022/07/19 00:17:03;;;;;;;0.93;0.32;;;;;;;21.64;38.55;99391.97;5021593;28;20042;-66
2022/07/19 00:19:47;;;;;;;0.95;0.50;;;;;;;21.62;38.04;99389.47;5011785;28;20042;-66
2022/07/19 00:22:32;;;;;;;3.03;0.75;;;;;;;21.68;38.59;99390.63;5011273;28;20049;-67
2022/07/19 00:25:18;;;;;;;1.85;0.30;;;;;;;21.69;39.79;99394.16;4999925;28;20033;-66
2022/07/19 00:28:03;;;;;;;1.30;0.60;;;;;;;21.62;39.45;99384.13;5011593;28;20038;-65
2022/07/19 00:30:48;;;;;;;2.38;0.55;;;;;;;21.60;39.74;99388.78;5012602;28;20100;-66
2022/07/19 00:33:32;;;;;;;0.75;0.40;;;;;;;21.61;40.20;99390.44;5012228;28;20037;-66
2022/07/19 00:36:18;;;;;;;0.90;0.40;;;;;;;21.60;38.92;99386.13;5011158;28;20417;-66
2022/07/19 00:39:03;;;;;;;0.68;0.40;;;;;;;21.61;38.64;99386.97;5011389;28;20461;-66
2022/07/19 00:41:48;;;;;;;0.88;0.40;;;;;;;21.61;40.05;99385.13;5005609;28;20120;-66
2022/07/19 00:44:33;;;;;;;0.70;0.43;;;;;;;21.62;38.47;99392.13;5010883;28;20049;-65
2022/07/19 00:47:18;;;;;;;1.58;0.50;;;;;;;21.61;37.51;99389.63;4999521;28;20148;-65
2022/07/19 00:50:03;;;;;;;1.25;0.47;;;;;;;21.56;35.09;99381.28;5025892;28;20116;-65
2022/07/19 00:53:00;;;;;;;3.08;0.88;;;;;;;21.55;36.47;99383.09;5021420;28;20156;-66
2022/07/19 00:55:45;;;;;;;0.90;0.30;;;;;;;21.62;36.74;99383.28;5012062;28;20057;-66
2022/07/19 00:58:31;;;;;;;1.17;0.35;;;;;;;21.62;38.47;99383.28;5011482;28;20037;-66
2022/07/19 01:01:17;;;;;;;0.85;0.40;;;;;;;21.59;37.84;99386.28;5013139;28;20051;-65
2022/07/19 01:04:02;;;;;;;0.60;0.30;;;;;;;21.55;39.56;99385.75;4998345;28;20092;-65
2022/07/19 01:06:47;;;;;;;1.42;0.40;;;;;;;21.47;40.56;99383.06;5025160;28;20434;-65
2022/07/19 01:09:36;;;;;;;1.27;0.77;;;;;;;21.43;39.02;99382.56;5010912;28;20041;-65
2022/07/19 01:12:24;;;;;;;0.73;0.40;;;;;;;21.42;39.66;99378.22;5011209;28;20057;-65
2022/07/19 01:15:14;;;;;;;2.72;0.80;;;;;;;21.39;39.07;99379.41;5024428;28;20073;-66
2022/07/19 01:17:59;;;;;;;0.50;0.30;;;;;;;21.36;38.50;99376.22;4998512;28;20141;-66
2022/07/19 01:20:43;;;;;;;1.48;0.40;;;;;;;21.36;40.38;99379.72;5011469;28;20037;-66
2022/07/19 01:23:28;;;;;;;1.58;0.50;;;;;;;21.35;39.07;99371.91;5008543;28;20038;-65
2022/07/19 01:26:13;;;;;;;1.17;0.60;;;;;;;21.37;38.39;99373.38;5011081;28;20037;-66
2022/07/19 01:28:57;;;;;;;0.90;0.47;;;;;;;21.37;42.43;99373.38;5011230;28;20061;-66
2022/07/19 01:31:42;;;;;;;1.33;0.55;;;;;;;21.36;38.93;99368.22;5006145;28;20422;-67
2022/07/19 01:34:27;;;;;;;1.60;0.40;;;;;;;21.37;39.85;99367.22;5011752;28;20440;-66
2022/07/19 01:37:12;;;;;;;0.85;0.70;;;;;;;21.35;39.97;99370.03;5011074;28;20339;-66
2022/07/19 01:39:58;;;;;;;0.98;0.45;;;;;;;21.35;40.70;99371.91;5010053;28;20042;-66
2022/07/19 01:42:44;;;;;;;0.73;0.55;;;;;;;21.33;40.11;99368.53;4999375;28;20037;-66
2022/07/19 01:45:28;;;;;;;1.30;0.60;;;;;;;21.27;38.90;99372.66;5018368;28;20078;-66
2022/07/19 01:48:13;;;;;;;1.73;0.60;;;;;;;21.23;39.22;99374.00;5010378;28;20088;-66
2022/07/19 01:50:58;;;;;;;0.68;0.40;;;;;;;21.19;39.93;99368.16;5021401;28;20052;-65
2022/07/19 01:53:42;;;;;;;1.17;0.40;;;;;;;21.16;41.41;99360.47;5001716;28;20069;-65
2022/07/19 01:56:27;;;;;;;1.58;0.60;;;;;;;21.12;42.89;99365.28;5015378;28;20112;-66
2022/07/19 01:59:12;;;;;;;1.10;0.50;;;;;;;21.08;38.56;99366.63;5013763;28;20426;-66
2022/07/19 02:01:56;;;;;;;2.15;0.45;;;;;;;21.05;40.28;99358.94;5013696;28;20094;-66
2022/07/19 02:04:41;;;;;;;0.90;0.40;;;;;;;21.01;40.11;99365.56;5001486;28;20069;-66
2022/07/19 02:07:26;;;;;;;0.57;0.32;;;;;;;20.97;41.56;99367.69;5014216;28;20452;-65
2022/07/19 02:10:10;;;;;;;1.15;0.32;;;;;;;20.86;38.22;99371.44;5015166;28;20077;-66
2022/07/19 02:12:57;;;;;;;1.45;0.50;;;;;;;20.79;41.97;99371.25;5026394;28;20042;-66
2022/07/19 02:15:42;;;;;;;1.10;0.60;;;;;;;20.78;41.19;99374.91;5013532;28;20054;-67
2022/07/19 02:18:26;;;;;;;1.42;0.50;;;;;;;20.83;41.17;99374.44;5001952;28;20386;-66
2022/07/19 02:21:11;;;;;;;2.28;0.50;;;;;;;20.87;44.33;99369.63;5013257;28;20062;-65
2022/07/19 02:23:56;;;;;;;0.57;0.40;;;;;;;20.87;42.05;99373.13;5013961;28;20038;-66
2022/07/19 02:26:41;;;;;;;3.75;0.60;;;;;;;20.82;41.17;99378.09;5026695;28;20358;-67
2022/07/19 02:29:25;;;;;;;1.50;0.50;;;;;;;20.84;40.70;99376.09;5013143;28;20509;-65
2022/07/19 02:32:11;;;;;;;1.33;0.70;;;;;;;20.88;45.82;99379.28;5025104;28;20073;-65
2022/07/19 02:34:56;;;;;;;1.05;0.45;;;;;;;20.84;42.48;99383.25;5009310;28;20069;-66
2022/07/19 02:37:41;;;;;;;1.02;0.60;;;;;;;20.79;41.28;99389.88;5014482;28;20159;-66
2022/07/19 02:40:26;;;;;;;1.25;0.52;;;;;;;20.78;42.69;99382.03;5014423;28;20042;-65
2022/07/19 02:43:11;;;;;;;1.08;0.50;;;;;;;20.76;40.44;99384.06;5027651;28;20494;-64
2022/07/19 02:45:56;;;;;;;0.98;0.47;;;;;;;20.76;45.26;99384.06;5006554;28;20386;-65
2022/07/19 02:48:41;;;;;;;0.98;0.47;;;;;;;20.73;43.00;99387.03;5014012;28;20038;-65
2022/07/19 02:51:25;;;;;;;1.08;0.40;;;;;;;20.72;42.83;99391.50;5013573;28;20046;-66
2022/07/19 02:54:10;;;;;;;2.30;0.63;;;;;;;20.70;43.04;99390.81;5023170;28;20100;-62
2022/07/19 02:56:54;;;;;;;0.90;0.40;;;;;;;20.66;42.45;99392.94;5013317;28;20510;-66
2022/07/19 02:59:39;;;;;;;0.85;0.55;;;;;;;20.66;42.17;99389.47;5022831;28;20033;-67
2022/07/19 03:02:24;;;;;;;1.45;0.40;;;;;;;20.61;43.26;99397.94;5014131;28;20048;-66
2022/07/19 03:05:08;;;;;;;0.80;0.50;;;;;;;20.64;39.88;99392.28;5017450;28;20104;-65
2022/07/19 03:07:53;;;;;;;1.10;0.50;;;;;;;20.66;45.52;99395.63;5007026;28;20038;-66
2022/07/19 03:10:38;;;;;;;0.88;0.40;;;;;;;20.63;42.42;99389.78;5013821;28;20050;-66
2022/07/19 03:13:22;;;;;;;1.85;0.43;;;;;;;20.59;42.35;99391.06;5015071;28;20544;-67
2022/07/19 03:16:08;;;;;;;0.95;0.50;;;;;;;20.53;42.46;99390.69;5013933;28;20112;-67
2022/07/19 03:18:52;;;;;;;0.70;0.40;;;;;;;20.50;42.27;99399.00;5013459;28;20069;-67
2022/07/19 03:21:37;;;;;;;1.60;0.40;;;;;;;20.51;43.01;99399.84;5013247;28;20034;-66
2022/07/19 03:24:22;;;;;;;1.50;0.50;;;;;;;20.50;42.09;99401.66;4998166;28;20076;-65
2022/07/19 03:27:07;;;;;;;0.90;0.50;;;;;;;20.55;42.17;99403.84;5014191;28;20050;-66
2022/07/19 03:29:51;;;;;;;1.05;0.50;;;;;;;20.53;39.89;99409.31;5012534;28;20034;-66
2022/07/19 03:32:36;;;;;;;1.73;0.60;;;;;;;20.56;41.07;99409.00;5014273;28;20060;-66
2022/07/19 03:35:21;;;;;;;1.27;0.60;;;;;;;20.53;40.06;99408.50;5013254;28;20045;-66
2022/07/19 03:38:06;;;;;;;1.58;0.60;;;;;;;20.55;39.72;99399.38;5012331;28;20095;-67
2022/07/19 03:40:51;;;;;;;7.10;0.73;;;;;;;20.60;40.20;99401.56;4998750;28;20604;-66
2022/07/19 03:43:37;;;;;;;0.80;0.40;;;;;;;20.59;43.16;99397.25;4999293;28;20100;-66
2022/07/19 03:46:22;;;;;;;0.68;0.40;;;;;;;20.62;43.87;99404.91;5013342;28;20113;-67
2022/07/19 03:49:06;;;;;;;1.25;0.55;;;;;;;20.62;39.72;99404.91;5011975;28;20046;-67
2022/07/19 03:51:51;;;;;;;2.47;0.70;;;;;;;20.59;40.88;99413.22;5016980;28;20360;-66
2022/07/19 03:54:36;;;;;;;0.30;0.30;;;;;;;20.65;44.26;99415.25;5019265;28;20066;-66
2022/07/19 03:57:20;;;;;;;1.10;0.43;;;;;;;20.68;40.56;99406.09;5009188;28;20061;-65
2022/07/19 04:00:06;;;;;;;1.65;0.32;;;;;;;20.64;44.07;99413.59;5015267;28;20487;-67
2022/07/19 04:02:56;;;;;;;0.88;0.50;;;;;;;20.60;43.11;99414.03;5032725;28;20041;-66
2022/07/19 04:05:44;;;;;;;0.93;0.50;;;;;;;20.65;41.97;99412.59;5010763;28;20080;-65
2022/07/19 04:08:28;;;;;;;1.17;0.50;;;;;;;20.62;41.14;99420.88;5012207;28;20045;-65
2022/07/19 04:11:13;;;;;;;0.68;0.47;;;;;;;20.63;41.05;99417.22;5012072;28;20041;-65
2022/07/19 04:13:58;;;;;;;1.08;0.52;;;;;;;20.71;42.27;99423.59;5012422;28;20058;-65
2022/07/19 04:16:43;;;;;;;0.70;0.40;;;;;;;20.75;42.79;99420.47;5012005;28;20056;-65
2022/07/19 04:19:27;;;;;;;2.45;0.77;;;;;;;20.75;41.25;99430.28;4998185;28;20061;-67
2022/07/19 04:22:15;;;;;;;1.33;0.45;;;;;;;20.65;41.58;99425.03;5024402;28;20434;-66
2022/07/19 04:25:02;;;;;;;1.88;0.60;;;;;;;20.72;40.61;99435.91;5011580;28;20390;-65
2022/07/19 04:27:47;;;;;;;1.08;0.60;;;;;;;20.73;40.46;99440.25;5012772;28;20041;-66
2022/07/19 04:30:31;;;;;;;2.25;0.75;;;;;;;20.73;42.70;99434.94;5011671;28;20041;-66
2022/07/19 04:33:17;;;;;;;1.30;0.75;;;;;;;20.87;41.41;99433.53;5011459;28;20057;-66
2022/07/19 04:36:02;;;;;;;0.88;0.50;;;;;;;20.92;42.12;99447.25;5012517;28;20052;-66
2022/07/19 04:38:47;;;;;;;2.55;0.70;;;;;;;21.00;42.77;99446.47;5010217;28;20113;-66
2022/07/19 04:41:31;;;;;;;1.98;0.77;;;;;;;21.08;40.99;99451.84;5012093;28;20061;-65
2022/07/19 04:44:16;;;;;;;1.40;0.65;;;;;;;21.16;43.09;99454.56;5012355;28;20501;-67
2022/07/19 04:47:01;;;;;;;1.00;0.50;;;;;;;21.34;41.29;99453.63;5011709;28;20042;-65
2022/07/19 04:49:45;;;;;;;1.58;0.60;;;;;;;21.44;42.23;99453.53;5010980;28;20065;-66
2022/07/19 04:52:30;;;;;;;0.70;0.38;;;;;;;21.58;41.54;99452.06;5011534;28;20541;-66
2022/07/19 04:55:15;;;;;;;1.25;0.65;;;;;;;21.73;41.20;99446.13;5012327;28;20034;-66
2022/07/19 04:57:59;;;;;;;1.00;0.50;;;;;;;21.87;42.45;99445.53;5010405;28;20111;-65
2022/07/19 05:00:44;;;;;;;3.10;0.50;;;;;;;21.78;39.23;99443.84;5012204;28;20033;-65
2022/07/19 05:03:29;;;;;;;2.13;0.70;;;;;;;21.78;40.71;99444.69;5013120;28;20038;-66
2022/07/19 05:06:14;;;;;;;4.13;0.95;;;;;;;21.68;39.12;99449.28;5020005;28;20069;-64
2022/07/19 05:08:59;;;;;;;1.95;0.70;;;;;;;21.70;39.43;99433.97;5023720;28;20042;-65
2022/07/19 05:11:44;;;;;;;1.02;0.60;;;;;;;21.82;41.87;99439.03;5002002;28;20040;-65
2022/07/19 05:14:28;;;;;;;1.70;0.70;;;;;;;22.03;39.24;99449.25;5016514;28;20053;-65
2022/07/19 05:17:13;;;;;;;2.25;0.70;;;;;;;22.27;41.17;99443.13;4985379;28;20061;-65
2022/07/19 05:19:58;;;;;;;0.60;0.40;;;;;;;22.52;41.13;99440.44;5011133;28;20041;-66
2022/07/19 05:22:44;;;;;;;1.40;0.50;;;;;;;22.58;40.62;99435.44;5011636;28;20038;-66
2022/07/19 05:25:29;;;;;;;1.73;0.90;;;;;;;22.46;41.96;99438.44;4983234;28;20038;-64
2022/07/19 05:28:13;;;;;;;1.52;0.45;;;;;;;22.51;41.25;99443.28;5011075;28;20046;-65
2022/07/19 05:30:59;;;;;;;2.05;0.57;;;;;;;22.66;43.43;99440.81;5011214;28;20521;-65
2022/07/19 05:33:45;;;;;;;1.23;0.50;;;;;;;22.89;39.06;99442.78;5008370;28;20100;-65
2022/07/19 05:36:29;;;;;;;1.33;0.60;;;;;;;22.92;37.67;99441.59;5011723;28;20046;-65
2022/07/19 05:39:14;;;;;;;0.50;0.40;;;;;;;23.19;38.62;99444.91;4985330;28;20070;-66
2022/07/19 05:41:59;;;;;;;1.25;0.60;;;;;;;23.36;41.09;99445.66;5009585;28;20038;-66
2022/07/19 05:44:44;;;;;;;1.30;0.60;;;;;;;23.41;38.45;99448.69;5010585;28;20038;-66
2022/07/19 05:47:28;;;;;;;1.02;0.50;;;;;;;23.56;40.65;99447.97;5023909;28;20046;-66
2022/07/19 05:50:13;;;;;;;3.00;0.77;;;;;;;23.65;38.08;99444.22;5016409;28;20069;-65
2022/07/19 05:52:58;;;;;;;2.70;0.55;;;;;;;23.46;37.68;99450.84;5023087;28;20436;-65
2022/07/19 05:55:44;;;;;;;1.02;0.50;;;;;;;23.88;37.09;99448.78;5019209;28;20048;-65
2022/07/19 05:58:28;;;;;;;1.35;0.50;;;;;;;23.81;38.88;99442.50;5014052;28;20386;-64
2022/07/19 06:01:19;;;;;;;1.02;0.57;;;;;;;23.93;39.94;99438.41;4996424;28;20133;-65
2022/07/19 06:04:03;;;;;;;1.60;0.70;;;;;;;24.07;39.93;99442.16;4997976;28;20052;-64
2022/07/19 06:06:48;;;;;;;2.03;0.80;;;;;;;24.08;38.13;99443.00;5022877;28;20037;-64
2022/07/19 06:09:33;;;;;;;1.58;0.70;;;;;;;23.85;39.80;99441.97;5020951;28;20041;-65
2022/07/19 06:12:18;;;;;;;1.75;0.80;;;;;;;23.87;40.88;99437.28;5011014;28;20045;-63
2022/07/19 06:15:04;;;;;;;3.38;0.70;;;;;;;23.59;42.00;99434.25;5010897;28;20071;-65
2022/07/19 06:17:49;;;;;;;1.98;0.65;;;;;;;23.81;40.58;99443.31;4999509;28;20331;-65
2022/07/19 06:20:34;;;;;;;1.77;0.68;;;;;;;24.13;38.95;99445.97;5010763;28;20042;-65
2022/07/19 06:23:18;;;;;;;1.75;0.68;;;;;;;24.36;39.40;99434.47;5009756;28;20057;-64
2022/07/19 06:26:04;;;;;;;5.00;1.10;;;;;;;24.56;39.16;99432.13;5010082;28;20046;-64
2022/07/19 06:28:50;;;;;;;2.30;1.00;;;;;;;24.43;39.63;99434.59;5022710;28;20129;-64
2022/07/19 06:31:35;;;;;;;2.80;0.80;;;;;;;24.64;39.15;99431.22;5008899;28;20096;-65
2022/07/19 06:34:19;;;;;;;1.13;0.68;;;;;;;25.09;39.74;99438.50;5011369;28;20069;-65
2022/07/19 06:37:04;;;;;;;2.38;0.60;;;;;;;24.77;39.63;99433.28;5009643;28;20046;-65
2022/07/19 06:39:49;;;;;;;1.73;0.85;;;;;;;25.06;38.50;99436.19;5014195;28;20366;-65
2022/07/19 06:42:35;;;;;;;0.80;0.68;;;;;;;25.16;39.43;99434.09;5046423;28;20048;-65
2022/07/19 06:45:19;;;;;;;2.08;0.60;;;;;;;25.56;38.73;99433.75;5015699;28;20493;-65
2022/07/19 06:48:05;;;;;;;1.88;0.60;;;;;;;25.46;39.45;99436.72;5013662;28;20124;-66
2022/07/19 06:50:49;;;;;;;1.55;0.90;;;;;;;25.51;38.34;99441.53;5012435;28;20064;-66
2022/07/19 06:53:35;;;;;;;1.70;0.93;;;;;;;25.88;39.51;99438.91;5014249;28;20467;-66
2022/07/19 06:56:19;;;;;;;2.08;0.65;;;;;;;26.48;38.55;99435.16;5013806;28;20073;-66
2022/07/19 06:59:04;;;;;;;4.68;0.80;;;;;;;26.65;37.86;99433.00;5012332;28;20050;-66
2022/07/19 07:01:49;;;;;;;2.58;0.70;;;;;;;26.39;36.69;99437.16;5014046;28;20511;-66
2022/07/19 07:04:34;;;;;;;3.35;1.10;;;;;;;26.15;35.42;99435.66;5013263;28;20042;-66
2022/07/19 07:07:19;;;;;;;1.23;0.75;;;;;;;26.03;36.92;99438.84;5002230;28;20042;-66
2022/07/19 07:10:06;;;;;;;1.30;0.60;;;;;;;26.91;36.33;99444.97;5026029;28;20386;-65
2022/07/19 07:12:50;;;;;;;2.95;1.02;;;;;;;26.97;35.98;99439.84;5013453;28;20399;-65
2022/07/19 07:15:38;;;;;;;5.43;1.08;;;;;;;27.14;36.04;99435.84;5014291;28;20128;-66
2022/07/19 07:18:22;;;;;;;3.80;0.80;;;;;;;27.00;34.16;99439.47;5032968;28;20048;-65
2022/07/19 07:21:07;;;;;;;2.03;0.93;;;;;;;27.21;37.84;99437.78;5032161;28;20633;-66
2022/07/19 07:23:52;;;;;;;3.08;0.80;;;;;;;27.28;35.62;99431.38;5021509;28;20111;-66
2022/07/19 07:26:37;;;;;;;1.80;0.93;;;;;;;27.71;33.69;99432.22;4998850;28;20139;-66
2022/07/19 07:29:22;;;;;;;1.70;0.75;;;;;;;27.49;33.18;99437.69;5013282;28;20069;-66
2022/07/19 07:32:06;;;;;;;1.30;0.60;;;;;;;27.78;32.78;99434.91;5013184;28;20104;-66
2022/07/19 07:34:51;;;;;;;5.40;0.95;;;;;;;27.59;32.04;99440.00;5013011;28;20104;-65
2022/07/19 07:37:35;;;;;;;4.13;1.05;;;;;;;28.37;30.72;99440.63;5013707;28;20141;-65
2022/07/19 07:40:20;;;;;;;2.35;0.70;;;;;;;28.40;30.79;99442.91;5012695;28;20034;-66
2022/07/19 07:43:05;;;;;;;2.72;0.70;;;;;;;28.19;31.69;99437.72;5013199;28;20060;-66
2022/07/19 07:45:50;;;;;;;1.40;0.77;;;;;;;29.03;32.45;99442.69;5004232;28;20070;-65
2022/07/19 07:48:35;;;;;;;3.72;1.00;;;;;;;28.62;33.57;99439.19;5025754;28;20085;-65
2022/07/19 07:51:20;;;;;;;2.03;0.80;;;;;;;28.82;31.46;99438.34;5016966;28;20054;-66
2022/07/19 07:54:05;;;;;;;2.08;0.80;;;;;;;29.09;31.76;99451.78;5001120;28;20093;-66
2022/07/19 07:56:49;;;;;;;3.95;0.75;;;;;;;29.14;32.15;99446.59;5012350;28;20422;-68
2022/07/19 07:59:34;;;;;;;3.80;0.98;;;;;;;29.02;31.76;99449.09;5012862;28;20038;-68
2022/07/19 08:02:19;;;;;;;2.25;0.75;;;;;;;29.39;30.99;99444.03;5013124;28;20045;-68
2022/07/19 08:05:04;;;;;;;2.75;0.77;;;;;;;29.23;30.53;99444.50;5012253;28;20048;-68
2022/07/19 08:07:49;;;;;;;2.78;0.70;;;;;;;29.67;34.18;99435.84;5002482;28;20327;-68
2022/07/19 08:10:35;;;;;;;1.83;0.70;;;;;;;29.48;29.68;99433.81;5012411;28;20353;-69
2022/07/19 08:13:21;;;;;;;2.50;0.70;;;;;;;29.49;30.26;99431.97;5025016;28;20471;-68
2022/07/19 08:16:07;;;;;;;0.88;0.60;;;;;;;30.27;28.99;99433.84;5025444;28;20057;-68
2022/07/19 08:18:54;;;;;;;2.22;0.70;;;;;;;30.53;27.75;99437.38;5014202;28;20486;-67
2022/07/19 08:21:38;;;;;;;5.47;1.08;;;;;;;30.55;30.19;99438.84;4992286;28;20503;-68
2022/07/19 08:24:23;;;;;;;4.32;0.60;;;;;;;31.22;27.33;99433.81;5012363;28;20390;-68
2022/07/19 08:27:08;;;;;;;2.45;0.50;;;;;;;31.59;25.67;99425.69;5012677;28;20045;-69
2022/07/19 08:29:52;;;;;;;1.80;0.70;;;;;;;31.91;28.30;99423.81;5012550;28;20045;-68
2022/07/19 08:32:38;;;;;;;3.65;0.63;;;;;;;31.28;27.42;99426.66;5012843;28;20580;-69
2022/07/19 08:35:23;;;;;;;2.53;0.70;;;;;;;31.59;24.77;99416.75;5012329;28;20045;-68
2022/07/19 08:38:08;;;;;;;4.57;0.90;;;;;;;32.14;24.40;99420.34;5011707;28;20037;-68
2022/07/19 08:40:55;;;;;;;2.95;0.70;;;;;;;32.18;26.28;99424.25;5011594;28;20045;-68
2022/07/19 08:43:40;;;;;;;2.63;0.52;;;;;;;32.07;28.73;99425.84;5011957;28;20045;-68
2022/07/19 08:46:25;;;;;;;6.80;0.70;;;;;;;32.37;24.23;99426.84;5011400;28;20117;-68
2022/07/19 08:49:10;;;;;;;3.58;0.80;;;;;;;32.12;23.81;99416.22;5012419;28;20060;-68
2022/07/19 08:51:56;;;;;;;4.07;0.90;;;;;;;32.48;22.94;99416.28;4996039;28;20064;-68
2022/07/19 08:54:41;;;;;;;5.53;0.73;;;;;;;32.39;25.90;99429.34;5024676;28;20037;-67
2022/07/19 09:00:31;;;;;;;3.67;0.85;;;;;;;32.84;24.63;99425.22;5011067;28;20121;-68
2022/07/19 09:03:16;;;;;;;2.60;1.25;;;;;;;33.41;23.30;99423.72;5011026;28;20064;-68
2022/07/19 09:06:04;;;;;;;1.00;0.70;;;;;;;33.42;25.52;99419.97;5021709;28;20109;-69
2022/07/19 09:08:50;;;;;;;3.85;0.50;;;;;;;33.75;26.14;99419.50;5015573;28;20033;-68
2022/07/19 09:11:37;;;;;;;4.15;0.77;;;;;;;33.46;22.02;99424.91;5019427;28;20050;-69
2022/07/19 09:14:28;;;;;;;1.85;0.50;;;;;;;33.44;25.02;99419.72;5025048;28;20107;-68
2022/07/19 09:17:16;;;;;;;3.80;0.75;;;;;;;33.71;26.78;99416.44;5014467;28;20035;-68
2022/07/19 09:20:01;;;;;;;4.43;0.70;;;;;;;34.15;26.32;99412.28;5031217;28;20045;-68
2022/07/19 09:22:54;;;;;;;2.08;0.77;;;;;;;34.93;26.57;99423.56;4999227;28;20037;-68
2022/07/19 09:25:42;;;;;;;6.63;0.77;;;;;;;35.38;24.09;99414.34;5011192;28;20207;-68
2022/07/19 09:28:30;;;;;;;1.48;0.80;;;;;;;34.12;23.72;99419.06;5021786;28;20359;-68
2022/07/19 09:31:15;;;;;;;1.60;0.68;;;;;;;34.94;26.64;99417.03;5005672;28;20054;-69
2022/07/19 09:34:00;;;;;;;2.67;0.68;;;;;;;35.30;23.19;99413.97;5000457;28;20042;-68
2022/07/19 09:36:45;;;;;;;1.20;0.80;;;;;;;34.73;25.59;99417.56;5023308;28;20049;-68
2022/07/19 09:39:30;;;;;;;3.05;0.70;;;;;;;34.53;23.59;99418.91;5012106;28;20049;-68
2022/07/19 09:42:21;;;;;;;2.13;1.02;;;;;;;35.12;23.51;99421.34;5011847;28;20058;-68
2022/07/19 09:45:07;;;;;;;2.05;0.75;;;;;;;35.79;21.12;99417.78;5009834;28;20042;-68
2022/07/19 09:47:54;;;;;;;2.05;0.70;;;;;;;35.92;25.02;99408.34;5010990;28;20386;-67
2022/07/19 09:50:38;;;;;;;2.85;0.90;;;;;;;35.91;29.30;99404.00;5011230;28;20435;-67
2022/07/19 09:53:23;;;;;;;2.60;0.93;;;;;;;35.21;20.22;99403.53;5010033;28;20060;-68
2022/07/19 09:56:09;;;;;;;2.05;0.73;;;;;;;35.20;22.54;99401.88;5010556;28;20042;-67
2022/07/19 09:58:54;;;;;;;3.22;0.93;;;;;;;35.78;23.89;99392.44;4996283;28;20057;-66
2022/07/19 10:01:40;;;;;;;4.43;1.08;;;;;;;35.14;25.65;99400.97;5024042;28;20064;-66
2022/07/19 10:04:26;;;;;;;2.78;0.90;;;;;;;35.23;22.52;99395.94;4997992;28;20026;-67
2022/07/19 10:07:13;;;;;;;1.73;0.75;;;;;;;36.09;24.44;99389.13;5010132;28;20513;-67
2022/07/19 10:10:01;;;;;;;2.90;1.02;;;;;;;35.46;20.86;99383.13;5011114;28;20537;-67
2022/07/19 10:12:48;;;;;;;3.33;0.90;;;;;;;35.68;24.44;99378.69;5012380;28;20105;-66
2022/07/19 10:15:39;;;;;;;3.22;0.85;;;;;;;37.30;24.72;99375.09;5015236;28;20092;-66
2022/07/19 10:18:32;;;;;;;1.40;0.75;;;;;;;37.51;20.34;99366.97;5023480;28;20478;-66
2022/07/19 10:21:18;;;;;;;1.73;0.80;;;;;;;37.75;20.57;99369.22;5014766;28;20042;-67
2022/07/19 10:24:03;;;;;;;1.30;0.47;;;;;;;36.45;18.63;99370.34;5027989;28;20044;-67
2022/07/19 10:26:56;;;;;;;2.85;0.65;;;;;;;36.53;21.27;99366.28;5002811;28;20489;-67
2022/07/19 10:29:43;;;;;;;2.80;0.70;;;;;;;37.07;20.50;99369.84;5013871;28;20053;-66
2022/07/19 10:32:30;;;;;;;1.10;0.50;;;;;;;37.28;18.58;99356.28;5004236;28;20058;-67
2022/07/19 10:35:27;;;;;;;1.05;0.75;;;;;;;37.76;18.63;99348.97;5013735;28;20128;-66
2022/07/19 10:38:12;;;;;;;3.22;0.75;;;;;;;37.37;20.38;99347.56;5013772;28;20046;-66
2022/07/19 10:40:58;;;;;;;1.13;0.52;;;;;;;36.84;21.80;99350.09;5014458;28;20629;-67
2022/07/19 10:44:09;;;;;;;2.97;0.90;;;;;;;36.75;20.37;99343.53;5013658;28;20034;-66
2022/07/19 10:46:53;;;;;;;1.38;0.70;;;;;;;36.39;18.43;99351.47;5006036;28;20065;-67
2022/07/19 10:49:46;;;;;;;2.75;0.63;;;;;;;37.86;18.40;99340.78;5013636;28;20066;-66
2022/07/19 10:52:34;;;;;;;1.58;0.50;;;;;;;37.12;18.02;99351.84;5024332;28;20056;-67
2022/07/19 10:55:20;;;;;;;5.35;0.60;;;;;;;37.14;17.74;99341.47;5038939;28;20092;-66
2022/07/19 10:58:10;;;;;;;3.53;0.55;;;;;;;36.12;17.70;99336.88;5014168;28;20505;-66
2022/07/19 11:01:01;;;;;;;2.15;0.57;;;;;;;36.74;21.33;99336.44;5013340;28;20041;-67
2022/07/19 11:03:47;;;;;;;1.48;0.40;;;;;;;37.19;24.57;99331.41;5015536;28;20105;-66
2022/07/19 11:06:32;;;;;;;0.80;0.32;;;;;;;36.55;18.83;99338.75;5017841;28;20042;-66
2022/07/19 11:09:16;;;;;;;3.20;0.70;;;;;;;36.67;19.75;99331.19;5015135;28;20038;-66
2022/07/19 11:12:29;;;;;;;0.82;0.50;;;;;;;37.31;20.84;99330.34;5013547;28;20402;-67
2022/07/19 11:15:14;;;;;;;2.65;0.50;;;;;;;37.45;19.63;99328.72;5026644;28;20109;-68
2022/07/19 11:18:06;;;;;;;1.35;0.40;;;;;;;36.61;17.26;99333.06;5013607;28;20038;-67
2022/07/19 11:20:51;;;;;;;0.60;0.40;;;;;;;38.00;19.76;99326.56;5013458;28;20394;-66
2022/07/19 11:23:38;;;;;;;0.77;0.40;;;;;;;38.67;22.07;99326.44;5025122;28;20462;-66
2022/07/19 11:26:23;;;;;;;2.20;0.68;;;;;;;37.69;23.88;99321.91;5013600;28;20042;-67
2022/07/19 11:29:07;;;;;;;1.55;0.57;;;;;;;38.03;18.24;99313.16;5022079;28;20061;-67
2022/07/19 11:31:52;;;;;;;1.00;0.30;;;;;;;37.54;22.74;99320.81;5012480;28;20133;-66
2022/07/19 11:34:36;;;;;;;1.30;0.50;;;;;;;37.06;19.70;99320.97;5013256;28;20042;-66
2022/07/19 11:37:28;;;;;;;2.15;0.70;;;;;;;38.45;16.77;99319.38;5013492;28;20050;-67
2022/07/19 11:40:13;;;;;;;2.53;0.88;;;;;;;37.33;18.60;99315.34;5013407;28;20065;-67
2022/07/19 11:42:58;;;;;;;7.18;0.60;;;;;;;37.88;17.55;99302.25;5009300;28;20112;-67
2022/07/19 11:45:45;;;;;;;1.70;0.60;;;;;;;38.36;21.47;99315.56;5013084;28;20081;-68
2022/07/19 11:48:31;;;;;;;1.75;0.70;;;;;;;38.98;18.67;99305.50;5012586;28;20029;-67
2022/07/19 11:51:17;;;;;;;1.55;0.60;;;;;;;39.25;23.79;99304.25;5007363;28;20096;-65
2022/07/19 11:54:04;;;;;;;1.67;0.65;;;;;;;38.07;22.76;99302.50;5013049;28;20033;-66
2022/07/19 11:56:49;;;;;;;2.22;0.43;;;;;;;37.70;24.08;99307.97;5012239;28;20042;-65
2022/07/19 11:59:34;;;;;;;0.95;0.40;;;;;;;37.80;25.44;99295.44;5013422;28;20478;-66
2022/07/19 12:02:19;;;;;;;1.20;0.57;;;;;;;38.07;20.99;99288.84;4999234;28;20340;-66
2022/07/19 12:05:19;;;;;;;4.00;0.60;;;;;;;38.90;23.70;99294.03;5013106;28;20060;-65
2022/07/19 12:08:42;;;;;;;1.27;0.50;;;;;;;38.35;20.87;99280.31;5008574;28;20042;-67
2022/07/19 12:11:30;;;;;;;2.70;0.70;;;;;;;37.89;22.21;99285.59;5012880;28;20434;-66
2022/07/19 12:14:21;;;;;;;1.23;0.38;;;;;;;37.59;25.81;99279.00;5000068;28;20042;-66
2022/07/19 12:17:24;;;;;;;1.63;0.57;;;;;;;38.02;23.11;99278.72;5025035;28;20117;-66
2022/07/19 12:20:10;;;;;;;2.72;0.57;;;;;;;37.96;24.79;99277.13;5011742;28;20041;-66
2022/07/19 12:23:23;;;;;;;0.82;0.38;;;;;;;38.88;22.16;99273.53;4988340;28;20493;-65
2022/07/19 12:26:09;;;;;;;3.58;0.50;;;;;;;39.12;21.59;99275.56;5012573;28;20042;-66
2022/07/19 12:28:54;;;;;;;1.27;0.32;;;;;;;38.54;24.89;99284.06;5011912;28;20041;-66
2022/07/19 12:31:46;;;;;;;1.88;0.63;;;;;;;39.14;21.23;99267.94;5012402;28;20183;-66
2022/07/19 12:34:48;;;;;;;2.22;0.50;;;;;;;39.44;20.22;99268.78;5012555;28;20068;-67
2022/07/19 12:37:40;;;;;;;0.80;0.32;;;;;;;39.05;19.41;99265.78;5024375;28;20041;-67
2022/07/19 12:40:28;;;;;;;2.60;0.55;;;;;;;38.41;20.09;99271.81;5012303;28;20084;-65
2022/07/19 12:43:21;;;;;;;1.10;0.40;;;;;;;37.40;19.86;99268.66;5012066;28;20042;-67
2022/07/19 12:46:13;;;;;;;5.20;0.70;;;;;;;38.28;26.06;99269.66;5012403;28;20466;-67
2022/07/19 12:49:01;;;;;;;2.58;1.27;;;;;;;38.70;22.10;99259.38;5000982;28;20169;-66
2022/07/19 12:51:48;;;;;;;1.48;0.70;;;;;;;38.36;18.23;99266.34;5025263;28;20037;-66
2022/07/19 12:54:38;;;;;;;0.85;0.50;;;;;;;38.71;20.28;99262.94;5012239;28;20045;-67
2022/07/19 12:57:23;;;;;;;2.30;0.40;;;;;;;39.21;23.41;99251.16;5012874;28;20038;-66
2022/07/19 13:00:09;;;;;;;1.63;0.75;;;;;;;38.31;23.41;99266.38;5011772;28;20053;-67
2022/07/19 13:02:55;;;;;;;3.08;0.70;;;;;;;37.77;23.20;99264.00;5011770;28;20061;-66
2022/07/19 13:05:39;;;;;;;0.73;0.50;;;;;;;38.83;26.75;99257.16;4996951;28;20046;-67